Muskoka, Ontario

11:34 PM EDT on May 04, 2015 (GMT -0400)
Muskoka | | Change Station
CLOSE
Current Station
Airport
Location: Muskoka,
Elevation: 922 ft
Nearby Weather Stations

Elev 922 ft 44.97 °N, 79.30 °W | Updated 34 minutes ago

Clear
Clear
48 °F
Feels Like 48 °F
N
5
Wind Variable Wind from West

Tomorrow is forecast to be nearly the same temperature as today.

Today
High -- | Low -- °F
--% Chance of Precip.
Yesterday
High -- | Low -- °F
Precip. -- in
6:02 AM 8:26 PM
Full, 99% visible
Pressure 30.15 in
Visibility 9.0 miles
Clouds Clear
Dew Point 46 °F
Humidity 93%
Rainfall 0.00 in
Snow Depth Not available.
UV 0 out of 12
Pollen Not available.
Air Quality Not available.
Flu Activity Not available.
METAR CYQA 050300Z AUTO 27004KT 9SM CLR 09/08 A3015 RMK SLP210

More Conditions Fewer Conditions

Pressure 30.15 in
Visibility 9.0 miles
Clouds Clear
Dew Point 46 °F
Humidity 93%
Rainfall 0.00 in
Snow Depth Not available.
UV 0 out of 12
Pollen Not available.
Air Quality Not available.
Flu Activity Not available.
METAR CYQA 050300Z AUTO 27004KT 9SM CLR 09/08 A3015 RMK SLP210

More Conditions Fewer Conditions

10-Day Weather Forecast

Almanac

Astronomy

May. 04, 2015 Rise Set
Actual Time
Civil Twilight
Nautical Twilight
Astronomical Twilight
Moon
Length of Visible Light
Length of Day
Tomorrow will be .
, % of the Moon is Illuminated

Today's Extremes

Country Highs Country Lows

Community

WunderPhotos

Upload Photos

1,818,812 photos uploaded!

WunderBlogs® & News

Nearby

Air Quality

  Air Quality AQ Index Pollutant
Not available.

Snow Depth

Station Depth Elevation

Earthquake Activity

City Distance Mag. Time & Date
Minimum magnitude displayed is 2.5.

Coastal Water Temperatures

Place Temperature

Stations

Nearby Weather Stations

Station Location Temp. Windchill Dew Point Humidity Wind Precip. Elev Updated Type